createdAt,value
2022-09-06T00:00:32.679Z,11.79
2022-09-06T00:03:01.330Z,11.80
2022-09-06T00:05:30.504Z,11.78
2022-09-06T00:08:00.153Z,11.79
2022-09-06T00:10:29.376Z,11.80
2022-09-06T00:13:01.260Z,11.79
2022-09-06T00:15:29.694Z,11.77
2022-09-06T00:18:01.058Z,11.75
2022-09-06T00:20:30.341Z,11.76
2022-09-06T00:22:59.931Z,11.75
2022-09-06T00:25:28.994Z,11.71
2022-09-06T00:27:58.358Z,11.67
2022-09-06T00:30:28.019Z,11.69
2022-09-06T00:32:57.024Z,11.67
2022-09-06T00:35:28.227Z,11.65
2022-09-06T00:37:59.085Z,11.67
2022-09-06T00:40:28.596Z,11.68
2022-09-06T00:42:57.372Z,11.69
2022-09-06T00:45:27.256Z,11.69
2022-09-06T00:47:56.454Z,11.63
2022-09-06T00:50:26.883Z,11.65
2022-09-06T00:52:55.722Z,11.61
2022-09-06T00:55:26.369Z,11.66
2022-09-06T00:57:56.648Z,11.67
2022-09-06T01:00:25.476Z,11.69
2022-09-06T01:02:55.331Z,11.64
2022-09-06T01:05:30.361Z,11.65
2022-09-06T01:08:08.896Z,11.65
2022-09-06T01:10:55.203Z,11.64
2022-09-06T01:13:35.543Z,11.64
2022-09-06T01:16:12.032Z,11.61
2022-09-06T01:19:00.791Z,11.60
2022-09-06T01:21:46.208Z,11.60
2022-09-06T01:24:49.561Z,11.60
2022-09-06T01:27:59.899Z,11.59
2022-09-06T01:30:28.439Z,11.56
2022-09-06T01:33:05.115Z,11.56
2022-09-06T01:35:37.892Z,11.54
2022-09-06T01:38:08.912Z,11.54
2022-09-06T01:40:37.347Z,11.53
2022-09-06T01:43:12.988Z,11.55
2022-09-06T01:46:05.106Z,11.54
2022-09-06T01:48:47.205Z,11.54
2022-09-06T01:51:25.419Z,11.53
2022-09-06T01:54:07.259Z,11.49
2022-09-06T01:56:44.703Z,11.50
2022-09-06T01:59:32.356Z,11.50
2022-09-06T02:02:04.423Z,11.47
2022-09-06T02:04:41.358Z,11.44
2022-09-06T02:07:19.358Z,11.44
2022-09-06T02:09:52.672Z,11.45
2022-09-06T02:12:23.996Z,11.43
2022-09-06T02:15:01.208Z,11.41
2022-09-06T02:17:35.668Z,11.40
2022-09-06T02:20:08.040Z,11.38
2022-09-06T02:22:41.082Z,11.39
2022-09-06T02:25:13.032Z,11.39
2022-09-06T02:27:41.667Z,11.39
2022-09-06T02:30:12.837Z,11.37
2022-09-06T02:32:47.856Z,11.35
2022-09-06T02:35:17.839Z,11.31
2022-09-06T02:37:46.833Z,11.35
2022-09-06T02:40:15.297Z,11.36
2022-09-06T02:42:43.772Z,11.34
2022-09-06T02:45:13.674Z,11.26
2022-09-06T02:47:42.317Z,11.27
2022-09-06T02:50:10.863Z,11.29
2022-09-06T02:52:39.302Z,11.31
2022-09-06T02:55:09.063Z,11.34
2022-09-06T02:57:37.464Z,11.32
2022-09-06T03:00:06.546Z,11.32
2022-09-06T03:02:39.215Z,11.33
2022-09-06T03:05:08.206Z,11.32
2022-09-06T03:07:36.654Z,11.30
2022-09-06T03:10:05.669Z,11.33
2022-09-06T03:12:34.099Z,11.33
2022-09-06T03:15:02.511Z,11.35
2022-09-06T03:17:31.771Z,11.34
2022-09-06T03:20:01.618Z,11.35
2022-09-06T03:22:32.049Z,11.39
2022-09-06T03:25:00.438Z,11.39
2022-09-06T03:27:29.450Z,11.40
2022-09-06T03:29:57.932Z,11.39
2022-09-06T03:32:26.486Z,11.40
2022-09-06T03:34:54.954Z,11.42
2022-09-06T03:37:24.893Z,11.41
2022-09-06T03:39:53.347Z,11.42
2022-09-06T03:42:22.326Z,11.41
2022-09-06T03:44:50.742Z,11.38
2022-09-06T03:47:19.804Z,11.37
2022-09-06T03:49:48.796Z,11.40
2022-09-06T03:52:17.295Z,11.39
2022-09-06T03:54:47.145Z,11.38
2022-09-06T03:57:15.742Z,11.36
2022-09-06T03:59:44.199Z,11.36
2022-09-06T04:02:12.726Z,11.37
2022-09-06T04:04:41.302Z,11.37
2022-09-06T04:07:09.855Z,11.37
2022-09-06T04:09:38.262Z,11.36
2022-09-06T04:12:08.464Z,11.34
2022-09-06T04:14:36.965Z,11.32
2022-09-06T04:17:05.422Z,11.31
2022-09-06T04:19:34.498Z,11.31
2022-09-06T04:22:03.524Z,11.30
2022-09-06T04:24:31.940Z,11.27
2022-09-06T04:27:00.961Z,11.26
2022-09-06T04:29:30.756Z,11.24
2022-09-06T04:31:59.202Z,11.25
2022-09-06T04:34:27.657Z,11.24
2022-09-06T04:36:56.244Z,11.18
2022-09-06T04:39:24.716Z,11.19
2022-09-06T04:41:53.142Z,11.23
2022-09-06T04:44:21.643Z,11.25
2022-09-06T04:46:51.504Z,11.30
2022-09-06T04:49:20.065Z,11.32
2022-09-06T04:51:48.522Z,11.32
2022-09-06T04:54:16.960Z,11.32
2022-09-06T04:56:45.417Z,11.31
2022-09-06T04:59:13.928Z,11.36
2022-09-06T05:01:42.478Z,11.37
2022-09-06T05:04:12.324Z,11.40
2022-09-06T05:06:41.835Z,11.42
2022-09-06T05:09:10.389Z,11.45
2022-09-06T05:11:38.777Z,11.47
2022-09-06T05:14:07.267Z,11.47
2022-09-06T05:16:35.799Z,11.48
2022-09-06T05:19:04.302Z,11.49
2022-09-06T05:21:34.286Z,11.49
2022-09-06T05:24:02.866Z,11.54
2022-09-06T05:26:31.490Z,11.53
2022-09-06T05:28:59.947Z,11.48
2022-09-06T05:31:29.753Z,11.47
2022-09-06T05:33:58.799Z,11.46
2022-09-06T05:36:28.496Z,11.43
2022-09-06T05:38:59.244Z,11.46
2022-09-06T05:41:28.406Z,11.41
2022-09-06T05:43:56.894Z,11.43
2022-09-06T05:46:26.564Z,11.46
2022-09-06T05:48:55.855Z,11.44
2022-09-06T05:51:24.379Z,11.45
2022-09-06T05:53:52.822Z,11.35
2022-09-06T05:56:22.757Z,11.38
2022-09-06T05:58:51.152Z,11.40
2022-09-06T06:01:21.348Z,11.44
2022-09-06T06:03:55.330Z,11.41
2022-09-06T06:06:25.807Z,11.44
2022-09-06T06:08:54.357Z,11.44
2022-09-06T06:11:26.060Z,11.47
2022-09-06T06:13:55.083Z,11.53
2022-09-06T06:16:25.549Z,11.54
2022-09-06T06:18:54.050Z,11.54
2022-09-06T06:21:24.423Z,11.53
2022-09-06T06:23:54.548Z,11.57
2022-09-06T06:26:24.652Z,11.62
2022-09-06T06:28:53.695Z,11.63
2022-09-06T06:31:22.741Z,11.64
2022-09-06T06:33:51.920Z,11.67
2022-09-06T06:36:22.780Z,11.70
2022-09-06T06:38:52.900Z,11.73
2022-09-06T06:41:24.535Z,11.73
2022-09-06T06:43:53.925Z,11.77
2022-09-06T06:46:24.476Z,11.81
2022-09-06T06:48:55.206Z,11.76
2022-09-06T06:51:25.463Z,11.82
2022-09-06T06:53:54.270Z,11.82
2022-09-06T06:56:26.240Z,11.88
2022-09-06T06:58:56.457Z,11.84
2022-09-06T07:01:26.502Z,11.87
2022-09-06T07:03:55.651Z,11.89
2022-09-06T07:09:13.354Z,11.89
2022-09-06T07:11:43.516Z,11.91
2022-09-06T07:14:11.965Z,11.94
2022-09-06T07:16:40.510Z,11.93
2022-09-06T07:22:02.757Z,11.91
2022-09-06T07:24:33.642Z,11.90
2022-09-06T07:29:51.945Z,11.95
2022-09-06T07:32:20.717Z,11.95
2022-09-06T07:34:49.165Z,11.99
2022-09-06T07:37:17.832Z,12.00
2022-09-06T07:39:46.456Z,12.09
2022-09-06T07:42:16.934Z,12.14
2022-09-06T07:44:45.385Z,12.20
2022-09-06T07:53:11.288Z,12.56
2022-09-06T07:55:41.744Z,12.65
2022-09-06T07:58:11.532Z,12.69
2022-09-06T08:00:41.413Z,12.72
2022-09-06T08:03:10.501Z,12.77
2022-09-06T08:11:16.227Z,12.74
2022-09-06T08:13:47.783Z,12.82
2022-09-06T08:16:17.120Z,12.94
2022-09-06T08:18:45.746Z,12.92
2022-09-06T08:21:16.344Z,12.84
2022-09-06T08:23:47.737Z,12.91
2022-09-06T08:26:16.949Z,12.96
2022-09-06T08:28:46.934Z,12.97
2022-09-06T08:31:17.722Z,12.97
2022-09-06T08:33:47.879Z,12.97
2022-09-06T08:36:16.792Z,12.97
2022-09-06T08:38:45.881Z,13.00
2022-09-06T08:41:25.732Z,13.11
2022-09-06T08:46:55.211Z,13.52
2022-09-06T08:49:29.121Z,13.61
2022-09-06T08:52:09.012Z,13.64
2022-09-06T08:54:41.443Z,13.55
2022-09-06T08:57:16.582Z,13.56
2022-09-06T08:59:46.813Z,13.54
2022-09-06T09:02:18.613Z,13.59
2022-09-06T09:04:50.710Z,13.61
2022-09-06T09:07:34.309Z,13.69
2022-09-06T09:10:07.439Z,13.74
2022-09-06T09:12:43.594Z,13.80
2022-09-06T09:15:16.221Z,13.75
2022-09-06T09:17:45.747Z,13.76
2022-09-06T09:20:14.606Z,13.82
2022-09-06T09:22:43.497Z,13.85
2022-09-06T09:25:20.102Z,13.87
2022-09-06T09:27:50.430Z,13.88
2022-09-06T09:33:23.555Z,13.82
2022-09-06T09:35:52.582Z,13.71
2022-09-06T09:38:25.225Z,13.69
2022-09-06T09:40:55.589Z,13.69
2022-09-06T09:43:25.984Z,13.71
2022-09-06T09:46:17.425Z,13.68
2022-09-06T09:49:01.342Z,13.69
2022-09-06T09:51:31.596Z,13.63
2022-09-06T09:54:01.861Z,13.62
2022-09-06T09:56:35.796Z,13.62
2022-09-06T09:59:07.735Z,13.50
2022-09-06T10:01:40.304Z,13.45
2022-09-06T10:07:12.397Z,13.26
2022-09-06T10:09:43.753Z,13.15
2022-09-06T10:12:18.387Z,13.04
2022-09-06T10:14:48.524Z,13.05
2022-09-06T10:17:29.198Z,13.06
2022-09-06T10:19:58.240Z,13.11
2022-09-06T10:22:31.522Z,13.24
2022-09-06T10:25:37.838Z,13.60
2022-09-06T10:28:25.439Z,13.84
2022-09-06T10:30:58.885Z,13.97
2022-09-06T10:33:40.906Z,13.93
2022-09-06T10:36:11.274Z,13.96
2022-09-06T10:38:52.791Z,13.93
2022-09-06T10:41:33.965Z,13.87
2022-09-06T10:44:14.548Z,13.90
2022-09-06T10:46:47.079Z,13.80
2022-09-06T10:49:21.488Z,13.79
2022-09-06T10:51:55.704Z,13.74
2022-09-06T10:54:26.036Z,13.75
2022-09-06T10:56:57.793Z,13.77
2022-09-06T10:59:38.349Z,13.78
2022-09-06T11:02:19.883Z,13.71
2022-09-06T11:10:34.850Z,13.73
2022-09-06T11:13:10.130Z,13.71
2022-09-06T11:15:46.566Z,13.68
2022-09-06T11:18:19.651Z,13.65
2022-09-06T11:21:03.224Z,13.61
2022-09-06T11:23:49.478Z,13.58
2022-09-06T11:26:36.099Z,13.55
2022-09-06T11:29:08.093Z,13.54
2022-09-06T11:34:44.240Z,13.54
2022-09-06T11:37:26.232Z,13.54
2022-09-06T11:43:19.786Z,13.41
2022-09-06T11:45:50.940Z,13.37
2022-09-06T11:48:36.565Z,13.34
2022-09-06T11:51:11.050Z,13.35
2022-09-06T11:54:21.986Z,13.40
2022-09-06T11:56:57.324Z,13.40
2022-09-06T11:59:38.542Z,13.41
2022-09-06T12:02:29.204Z,13.41
2022-09-06T12:05:29.435Z,13.43
2022-09-06T12:08:34.286Z,13.40
2022-09-06T12:11:21.746Z,13.40
2022-09-06T12:14:03.825Z,13.40
2022-09-06T12:17:10.014Z,13.41
2022-09-06T12:19:46.732Z,13.40
2022-09-06T12:23:02.744Z,13.36
2022-09-06T12:25:58.934Z,13.29
2022-09-06T12:28:34.800Z,13.17
2022-09-06T12:31:24.889Z,13.17
2022-09-06T12:33:54.939Z,13.16
2022-09-06T12:36:29.920Z,13.17
2022-09-06T12:39:00.764Z,13.10
2022-09-06T12:41:32.066Z,13.09
2022-09-06T12:44:03.105Z,13.08
2022-09-06T12:46:34.063Z,13.08
2022-09-06T12:49:08.567Z,13.06
2022-09-06T12:51:38.982Z,13.06
2022-09-06T12:54:18.295Z,13.06
2022-09-06T12:56:46.861Z,13.08
2022-09-06T12:59:19.499Z,13.09
2022-09-06T13:01:54.873Z,13.10
2022-09-06T13:04:30.958Z,13.08
2022-09-06T13:07:02.096Z,13.05
2022-09-06T13:09:32.534Z,13.01
2022-09-06T13:12:06.839Z,13.02
2022-09-06T13:14:36.872Z,13.01
2022-09-06T13:17:06.791Z,13.00
2022-09-06T13:19:37.700Z,12.99
2022-09-06T13:22:08.988Z,12.93
2022-09-06T13:24:47.319Z,12.96
2022-09-06T13:27:27.492Z,12.95
2022-09-06T13:29:58.133Z,12.94
2022-09-06T13:32:29.269Z,12.89
2022-09-06T13:35:00.300Z,12.89
2022-09-06T13:37:31.272Z,12.87
2022-09-06T13:40:00.018Z,12.87
2022-09-06T13:42:31.147Z,12.88
2022-09-06T13:45:02.169Z,12.84
2022-09-06T13:47:33.691Z,12.86
2022-09-06T13:50:02.263Z,12.85
2022-09-06T13:52:31.422Z,12.87
2022-09-06T13:55:00.050Z,12.90
2022-09-06T13:57:28.524Z,12.93
2022-09-06T13:59:56.996Z,12.91
2022-09-06T14:02:25.565Z,12.83
2022-09-06T14:04:55.449Z,12.70
2022-09-06T14:07:23.969Z,12.69
2022-09-06T14:09:52.442Z,12.62
2022-09-06T14:12:20.786Z,12.56
2022-09-06T14:14:49.155Z,12.46
2022-09-06T14:17:17.707Z,12.36
2022-09-06T14:19:46.407Z,12.40
2022-09-06T14:22:16.329Z,12.35
2022-09-06T14:24:44.760Z,12.31
2022-09-06T14:27:13.340Z,12.32
2022-09-06T14:29:42.264Z,12.22
2022-09-06T14:32:11.527Z,12.17
2022-09-06T14:34:40.125Z,12.18
2022-09-06T14:37:13.326Z,12.19
2022-09-06T14:39:43.618Z,12.19
2022-09-06T14:42:12.121Z,12.22
2022-09-06T14:44:41.228Z,12.23
2022-09-06T14:47:09.698Z,12.20
2022-09-06T14:49:38.111Z,12.22
2022-09-06T14:52:06.667Z,12.25
2022-09-06T14:54:35.289Z,12.27
2022-09-06T14:57:05.552Z,12.26
2022-09-06T14:59:34.148Z,12.26
2022-09-06T15:02:02.656Z,12.29
2022-09-06T15:04:31.319Z,12.30
2022-09-06T15:07:00.131Z,12.20
2022-09-06T15:09:28.952Z,12.17
2022-09-06T15:11:57.414Z,12.22
2022-09-06T15:14:29.540Z,12.21
2022-09-06T15:17:00.112Z,12.20
2022-09-06T15:19:29.760Z,12.26
2022-09-06T15:21:59.564Z,12.18
2022-09-06T15:24:28.777Z,12.21
2022-09-06T15:26:57.667Z,12.21
2022-09-06T15:29:28.119Z,12.19
2022-09-06T15:31:57.327Z,12.14
2022-09-06T15:34:27.674Z,12.16
2022-09-06T15:36:56.787Z,12.17
2022-09-06T15:39:25.350Z,12.19
2022-09-06T15:41:53.853Z,12.22
2022-09-06T15:44:22.621Z,12.22
2022-09-06T15:46:54.050Z,12.29
2022-09-06T15:49:27.816Z,12.31
2022-09-06T15:51:57.205Z,12.23
2022-09-06T15:54:46.372Z,12.25
2022-09-06T15:57:16.566Z,12.25
2022-09-06T15:59:45.819Z,12.22
2022-09-06T16:02:15.991Z,12.23
2022-09-06T16:04:44.449Z,12.23
2022-09-06T16:07:12.959Z,12.26
2022-09-06T18:03:53.154Z,11.24
2022-09-06T18:06:24.148Z,11.27
2022-09-06T18:08:54.585Z,11.34
2022-09-06T18:11:25.100Z,11.35
2022-09-06T18:13:58.148Z,11.32
2022-09-06T18:16:27.239Z,11.33
2022-09-06T18:18:59.205Z,11.36
2022-09-06T18:21:29.596Z,11.35
2022-09-06T18:23:58.832Z,11.29
2022-09-06T18:26:27.730Z,11.20
2022-09-06T18:28:57.583Z,11.21
2022-09-06T18:31:27.659Z,11.20
2022-09-06T18:33:59.060Z,11.25
2022-09-06T18:36:31.886Z,11.21
2022-09-06T18:39:02.915Z,11.17
2022-09-06T18:41:49.208Z,11.12
2022-09-06T18:44:18.255Z,11.07
2022-09-06T18:46:46.711Z,11.09
2022-09-06T18:49:17.613Z,11.10
2022-09-06T18:51:46.518Z,11.10
2022-09-06T18:54:15.115Z,11.08
2022-09-06T18:56:44.950Z,10.97
2022-09-06T18:59:14.514Z,11.05
2022-09-06T19:01:43.350Z,11.00
2022-09-06T19:04:13.205Z,11.06
2022-09-06T19:06:44.276Z,11.06
2022-09-06T19:09:14.505Z,11.03
2022-09-06T19:11:45.718Z,11.00
2022-09-06T19:14:15.672Z,10.94
2022-09-06T19:16:45.400Z,10.95
2022-09-06T19:19:14.104Z,10.90
2022-09-06T19:21:44.321Z,10.93
2022-09-06T19:24:14.762Z,10.88
2022-09-06T19:26:44.889Z,10.88
2022-09-06T19:29:16.087Z,10.84
2022-09-06T19:31:45.883Z,10.88
2022-09-06T19:34:15.788Z,10.87
2022-09-06T19:36:46.294Z,10.86
2022-09-06T19:39:16.649Z,10.82
2022-09-06T19:41:47.489Z,10.78
2022-09-06T19:44:17.089Z,10.76
2022-09-06T19:46:47.134Z,10.82
2022-09-06T19:49:17.249Z,10.76
2022-09-06T19:51:51.418Z,10.74
2022-09-06T19:54:22.666Z,10.68
2022-09-06T19:56:51.204Z,10.59
2022-09-06T19:59:19.646Z,10.59
2022-09-06T20:01:48.471Z,10.53
2022-09-06T20:04:17.300Z,10.55
2022-09-06T20:06:47.109Z,10.54
2022-09-06T20:09:16.704Z,10.50
2022-09-06T20:11:46.547Z,10.46
2022-09-06T20:14:15.786Z,10.49
2022-09-06T20:16:44.247Z,10.50
2022-09-06T20:19:14.640Z,10.48
2022-09-06T20:21:43.468Z,10.43
2022-09-06T20:24:13.246Z,10.42
2022-09-06T20:26:41.774Z,10.39
2022-09-06T20:29:10.564Z,10.39
2022-09-06T20:31:39.508Z,10.42
2022-09-06T20:34:08.408Z,10.46
2022-09-06T20:36:37.030Z,10.37
2022-09-06T20:39:06.064Z,10.34
2022-09-06T20:41:35.892Z,10.38
2022-09-06T20:44:04.593Z,10.44
2022-09-06T20:46:35.296Z,10.41
2022-09-06T20:49:05.423Z,10.34
2022-09-06T20:51:35.210Z,10.33
2022-09-06T20:54:05.615Z,10.27
2022-09-06T20:56:38.406Z,10.33
2022-09-06T20:59:08.981Z,10.29
2022-09-06T21:01:39.013Z,10.17
2022-09-06T21:04:08.960Z,10.11
2022-09-06T21:06:39.481Z,10.12
2022-09-06T21:09:10.188Z,10.11
2022-09-06T21:11:41.017Z,10.15
2022-09-06T21:14:09.901Z,10.17
2022-09-06T21:16:39.402Z,10.12
2022-09-06T21:19:10.037Z,10.15
2022-09-06T21:21:39.484Z,10.16
2022-09-06T21:24:09.115Z,10.16
2022-09-06T21:26:37.562Z,10.15
2022-09-06T21:29:07.701Z,10.16
2022-09-06T21:31:37.883Z,10.16
2022-09-06T21:34:08.515Z,10.19
2022-09-06T21:36:40.314Z,10.14
2022-09-06T21:39:10.996Z,10.15
2022-09-06T21:41:40.762Z,10.08
2022-09-06T21:44:10.639Z,10.06
2022-09-06T21:46:40.179Z,10.02
2022-09-06T21:49:10.637Z,9.98
2022-09-06T21:51:39.177Z,9.98
2022-09-06T21:54:08.119Z,9.91
2022-09-06T21:56:38.392Z,9.93
2022-09-06T21:59:07.557Z,9.97
2022-09-06T22:01:39.238Z,9.93
2022-09-06T22:04:08.521Z,9.88
2022-09-06T22:06:37.892Z,9.91
2022-09-06T22:09:10.930Z,9.94
2022-09-06T22:11:41.076Z,9.97
2022-09-06T22:14:11.363Z,9.97
2022-09-06T22:16:42.299Z,10.01
2022-09-06T22:19:11.615Z,10.00
2022-09-06T22:21:40.594Z,10.00
2022-09-06T22:24:11.506Z,9.99
2022-09-06T22:26:41.899Z,9.96
2022-09-06T22:29:11.985Z,10.00
2022-09-06T22:31:41.980Z,9.98
2022-09-06T22:34:10.785Z,10.00
2022-09-06T22:36:39.689Z,9.97
2022-09-06T22:39:09.664Z,9.97
2022-09-06T22:41:38.133Z,9.93
2022-09-06T22:44:07.050Z,9.90
2022-09-06T22:46:35.917Z,9.86
2022-09-06T22:49:05.923Z,9.83
2022-09-06T22:51:34.597Z,9.85
2022-09-06T22:54:03.081Z,9.81
2022-09-06T22:56:31.682Z,9.79
2022-09-06T22:59:00.606Z,9.80
2022-09-06T23:01:29.429Z,9.77
2022-09-06T23:03:57.854Z,9.72
2022-09-06T23:06:27.873Z,9.72
2022-09-06T23:08:56.298Z,9.69
2022-09-06T23:11:24.727Z,9.63
2022-09-06T23:13:57.255Z,9.68
2022-09-06T23:16:27.130Z,9.65
2022-09-06T23:18:55.894Z,9.67
2022-09-06T23:21:27.906Z,9.60
2022-09-06T23:23:57.524Z,9.58
2022-09-06T23:26:28.814Z,9.60
2022-09-06T23:28:57.564Z,9.66
2022-09-06T23:31:27.433Z,9.62
2022-09-06T23:33:57.474Z,9.67
2022-09-06T23:36:28.125Z,9.63
2022-09-06T23:38:57.130Z,9.62
2022-09-06T23:41:25.926Z,9.62
2022-09-06T23:43:54.439Z,9.63
2022-09-06T23:46:23.058Z,9.55
2022-09-06T23:48:51.617Z,9.55
2022-09-06T23:51:20.289Z,9.52
2022-09-06T23:53:50.196Z,9.49
2022-09-06T23:56:18.794Z,9.53
2022-09-06T23:58:47.224Z,9.56
